createdAt,value
2017-06-19T00:01:59.660Z,4.30
2017-06-19T00:04:27.133Z,4.33
2017-06-19T00:06:55.373Z,4.77
2017-06-19T00:09:22.864Z,4.97
2017-06-19T00:11:51.140Z,5.20
2017-06-19T00:14:19.381Z,5.30
2017-06-19T00:16:46.871Z,5.53
2017-06-19T00:19:15.113Z,5.17
2017-06-19T00:21:42.589Z,5.00
2017-06-19T00:24:10.081Z,6.03
2017-06-19T00:26:37.653Z,5.03
2017-06-19T00:29:05.307Z,4.90
2017-06-19T00:31:32.992Z,3.47
2017-06-19T00:34:00.644Z,3.47
2017-06-19T00:36:28.920Z,3.40
2017-06-19T00:38:56.582Z,3.70
2017-06-19T00:41:24.251Z,3.30
2017-06-19T00:43:51.909Z,3.67
2017-06-19T00:46:19.398Z,3.10
2017-06-19T00:48:46.871Z,4.60
2017-06-19T00:51:15.118Z,3.83
2017-06-19T00:53:42.609Z,4.20
2017-06-19T00:56:11.130Z,4.70
2017-06-19T00:58:38.605Z,4.33
2017-06-19T01:01:06.105Z,4.77
2017-06-19T01:03:34.344Z,4.07
2017-06-19T01:06:01.816Z,5.13
2017-06-19T01:08:29.313Z,5.17
2017-06-19T01:10:56.782Z,5.23
2017-06-19T01:13:24.301Z,4.80
2017-06-19T01:15:52.561Z,6.13
2017-06-19T01:18:20.041Z,5.67
2017-06-19T01:20:48.282Z,5.40
2017-06-19T01:23:15.774Z,6.03
2017-06-19T01:25:44.013Z,5.80
2017-06-19T01:28:11.482Z,6.57
2017-06-19T01:30:38.972Z,6.27
2017-06-19T01:33:06.441Z,5.70
2017-06-19T01:35:33.913Z,6.83
2017-06-19T01:38:01.429Z,6.97
2017-06-19T01:40:29.673Z,7.80
2017-06-19T01:42:57.145Z,6.33
2017-06-19T01:45:24.637Z,6.67
2017-06-19T01:47:52.106Z,6.23
2017-06-19T01:50:19.577Z,6.00
2017-06-19T01:52:47.069Z,6.27
2017-06-19T01:55:14.542Z,5.87
2017-06-19T01:57:42.777Z,5.87
2017-06-19T02:00:10.281Z,6.50
2017-06-19T02:02:38.524Z,6.77
2017-06-19T02:05:05.993Z,6.63
2017-06-19T02:07:33.489Z,6.70
2017-06-19T02:10:00.965Z,6.73
2017-06-19T02:12:28.437Z,5.43
2017-06-19T02:14:55.930Z,7.03
2017-06-19T02:17:24.172Z,5.47
2017-06-19T02:19:51.646Z,6.00
2017-06-19T02:22:19.138Z,6.97
2017-06-19T02:24:46.609Z,7.17
2017-06-19T02:27:14.137Z,5.77
2017-06-19T02:29:42.393Z,6.37
2017-06-19T02:32:09.881Z,5.73
2017-06-19T02:34:38.358Z,6.70
2017-06-19T02:37:06.624Z,5.90
2017-06-19T02:39:34.870Z,5.47
2017-06-19T02:42:02.340Z,5.90
2017-06-19T02:44:29.838Z,5.90
2017-06-19T02:46:57.314Z,6.63
2017-06-19T02:49:24.785Z,5.77
2017-06-19T02:51:52.286Z,6.70
2017-06-19T02:54:20.657Z,7.70
2017-06-19T02:56:48.134Z,7.60
2017-06-19T02:59:16.389Z,7.87
2017-06-19T03:01:43.861Z,8.17
2017-06-19T03:04:12.101Z,7.97
2017-06-19T03:06:39.594Z,7.23
2017-06-19T03:09:07.838Z,8.37
2017-06-19T03:11:35.312Z,8.60
2017-06-19T03:14:02.811Z,7.47
2017-06-19T03:16:30.294Z,8.20
2017-06-19T03:18:57.766Z,7.97
2017-06-19T03:21:25.253Z,8.70
2017-06-19T03:23:53.489Z,7.40
2017-06-19T03:26:21.182Z,7.70
2017-06-19T03:28:49.440Z,8.17
2017-06-19T03:31:16.909Z,7.57
2017-06-19T03:33:44.386Z,6.97
2017-06-19T03:36:12.645Z,7.40
2017-06-19T03:38:40.890Z,7.90
2017-06-19T03:41:08.373Z,7.70
2017-06-19T03:43:36.638Z,7.77
2017-06-19T03:46:04.109Z,8.33
2017-06-19T03:48:32.346Z,8.27
2017-06-19T03:50:59.869Z,8.93
2017-06-19T03:53:27.345Z,9.13
2017-06-19T03:55:55.050Z,7.63
2017-06-19T03:58:22.549Z,8.00
2017-06-19T04:00:50.022Z,8.27
2017-06-19T04:03:17.505Z,9.50
2017-06-19T04:05:45.451Z,8.47
2017-06-19T04:08:12.966Z,7.83
2017-06-19T04:10:41.209Z,8.27
2017-06-19T04:13:08.705Z,7.60
2017-06-19T04:15:36.945Z,8.10
2017-06-19T04:18:05.206Z,8.90
2017-06-19T04:20:32.697Z,8.30
2017-06-19T04:23:00.934Z,8.10
2017-06-19T04:25:28.405Z,7.90
2017-06-19T04:27:56.297Z,8.10
2017-06-19T04:30:24.532Z,7.80
2017-06-19T04:32:52.005Z,7.60
2017-06-19T04:35:19.497Z,7.40
2017-06-19T04:37:47.739Z,7.83
2017-06-19T04:40:15.205Z,7.90
2017-06-19T04:42:42.693Z,7.87
2017-06-19T04:45:10.165Z,7.43
2017-06-19T04:47:37.638Z,8.00
2017-06-19T04:50:05.130Z,7.93
2017-06-19T04:52:32.610Z,7.73
2017-06-19T04:55:00.849Z,7.97
2017-06-19T04:57:28.342Z,8.40
2017-06-19T04:59:56.585Z,7.57
2017-06-19T05:02:24.061Z,7.17
2017-06-19T05:04:51.558Z,7.27
2017-06-19T05:07:19.033Z,7.97
2017-06-19T05:09:46.505Z,7.03
2017-06-19T05:12:14.005Z,5.87
2017-06-19T05:14:42.245Z,4.80
2017-06-19T05:17:09.722Z,3.60
2017-06-19T05:19:37.537Z,2.60
2017-06-19T05:22:05.053Z,2.77
2017-06-19T05:24:33.294Z,2.37
2017-06-19T05:27:00.786Z,2.10
2017-06-19T05:29:29.030Z,1.87
2017-06-19T05:31:56.505Z,2.00
2017-06-19T05:34:23.997Z,2.73
2017-06-19T05:36:51.469Z,2.33
2017-06-19T05:39:18.945Z,2.37
2017-06-19T05:41:46.437Z,1.90
2017-06-19T05:44:13.930Z,2.20
2017-06-19T05:46:41.565Z,1.70
2017-06-19T05:49:09.825Z,2.07
2017-06-19T05:51:37.293Z,2.20
2017-06-19T05:54:05.528Z,1.80
2017-06-19T05:56:33.017Z,2.13
2017-06-19T05:59:00.875Z,1.90
2017-06-19T06:01:29.362Z,2.10
2017-06-19T06:03:58.569Z,2.27
2017-06-19T06:06:27.401Z,1.80
2017-06-19T06:08:56.092Z,2.00
2017-06-19T06:11:24.361Z,1.90
2017-06-19T06:13:52.229Z,2.13
2017-06-19T06:16:20.718Z,1.73
2017-06-19T06:18:49.495Z,2.20
2017-06-19T06:21:17.464Z,1.97
2017-06-19T06:23:45.331Z,2.37
2017-06-19T06:26:14.234Z,1.90
2017-06-19T06:28:42.764Z,1.60
2017-06-19T06:31:10.276Z,2.33
2017-06-19T06:33:38.228Z,1.83
2017-06-19T06:36:06.530Z,2.20
2017-06-19T06:38:34.596Z,2.00
2017-06-19T06:41:02.772Z,2.10
2017-06-19T06:43:31.609Z,1.77
2017-06-19T06:45:59.545Z,2.00
2017-06-19T06:48:27.906Z,1.90
2017-06-19T06:50:56.568Z,1.70
2017-06-19T06:53:24.944Z,2.13
2017-06-19T06:55:53.323Z,1.53
2017-06-19T06:58:21.291Z,1.60
2017-06-19T07:00:50.343Z,1.93
2017-06-19T07:03:19.256Z,2.13
2017-06-19T07:05:46.879Z,1.43
2017-06-19T07:08:15.521Z,1.80
2017-06-19T07:10:43.695Z,1.87
2017-06-19T07:13:11.644Z,1.63
2017-06-19T07:15:39.735Z,1.63
2017-06-19T07:18:07.805Z,2.90
2017-06-19T07:20:36.286Z,2.07
2017-06-19T07:23:04.356Z,1.60
2017-06-19T07:25:32.223Z,2.53
2017-06-19T07:28:00.090Z,1.97
2017-06-19T07:30:27.732Z,1.80
2017-06-19T07:32:55.855Z,2.00
2017-06-19T07:35:24.097Z,2.63
2017-06-19T07:37:52.168Z,1.77
2017-06-19T07:40:20.955Z,1.73
2017-06-19T07:42:49.129Z,1.83
2017-06-19T07:45:16.893Z,1.83
2017-06-19T07:47:44.665Z,2.17
2017-06-19T07:50:12.626Z,2.03
2017-06-19T07:52:40.900Z,1.90
2017-06-19T07:55:09.176Z,1.83
2017-06-19T07:57:39.091Z,2.60
2017-06-19T08:00:07.800Z,1.77
2017-06-19T08:02:36.563Z,1.70
2017-06-19T08:05:04.939Z,1.93
2017-06-19T08:07:32.910Z,2.00
2017-06-19T08:10:01.583Z,1.87
2017-06-19T08:12:29.360Z,2.17
2017-06-19T08:14:57.226Z,2.40
2017-06-19T08:17:26.734Z,1.70
2017-06-19T08:19:55.006Z,1.63
2017-06-19T08:22:24.261Z,1.77
2017-06-19T08:24:52.580Z,1.70
2017-06-19T08:27:21.267Z,2.37
2017-06-19T08:29:49.542Z,1.80
2017-06-19T08:32:17.613Z,2.00
2017-06-19T08:34:45.786Z,1.97
2017-06-19T08:37:13.755Z,1.73
2017-06-19T08:39:41.928Z,1.70
2017-06-19T08:42:10.567Z,1.50
2017-06-19T08:44:38.868Z,2.03
2017-06-19T08:47:06.858Z,1.73
2017-06-19T08:49:34.826Z,2.03
2017-06-19T08:52:02.722Z,1.80
2017-06-19T08:54:31.704Z,1.70
2017-06-19T08:56:59.653Z,2.00
2017-06-19T08:59:28.048Z,1.80
2017-06-19T09:01:56.639Z,2.00
2017-06-19T09:04:24.583Z,2.00
2017-06-19T09:06:52.448Z,1.87
2017-06-19T09:09:20.622Z,1.87
2017-06-19T09:11:48.615Z,1.83
2017-06-19T09:14:16.211Z,1.33
2017-06-19T09:16:47.091Z,1.77
2017-06-19T09:19:15.055Z,1.77
2017-06-19T09:21:43.748Z,1.67
2017-06-19T09:24:11.608Z,2.80
2017-06-19T09:26:40.779Z,1.50
2017-06-19T09:29:08.773Z,1.83
2017-06-19T09:31:36.501Z,1.53
2017-06-19T09:34:04.304Z,1.47
2017-06-19T09:36:32.836Z,1.33
2017-06-19T09:39:01.467Z,1.40
2017-06-19T09:41:29.335Z,1.80
2017-06-19T09:43:57.078Z,1.87
2017-06-19T09:46:24.863Z,1.70
2017-06-19T09:48:52.649Z,1.70
2017-06-19T09:51:20.505Z,1.73
2017-06-19T09:53:48.459Z,1.60
2017-06-19T09:56:16.323Z,1.60
2017-06-19T09:58:43.925Z,1.53
2017-06-19T10:01:12.058Z,1.90
2017-06-19T10:03:39.924Z,1.77
2017-06-19T10:06:07.557Z,1.70
2017-06-19T10:08:35.347Z,1.47
2017-06-19T10:11:03.138Z,1.87
2017-06-19T10:13:31.080Z,2.10
2017-06-19T10:15:59.252Z,1.60
2017-06-19T10:18:27.326Z,2.10
2017-06-19T10:20:55.231Z,1.97
2017-06-19T10:23:24.694Z,1.20
2017-06-19T10:25:53.686Z,1.30
2017-06-19T10:28:21.760Z,1.70
2017-06-19T10:30:50.377Z,1.53
2017-06-19T10:33:18.327Z,1.77
2017-06-19T10:35:46.379Z,1.20
2017-06-19T10:38:14.654Z,1.30
2017-06-19T10:40:43.254Z,1.57
2017-06-19T10:43:11.104Z,1.57
2017-06-19T10:45:38.805Z,1.50
2017-06-19T10:48:06.633Z,1.97
2017-06-19T10:50:35.368Z,1.27
2017-06-19T10:53:03.389Z,1.37
2017-06-19T10:55:31.436Z,1.50
2017-06-19T10:57:59.605Z,1.67
2017-06-19T11:00:28.475Z,1.47
2017-06-19T11:02:56.734Z,1.97
2017-06-19T11:05:25.484Z,1.60
2017-06-19T11:07:53.656Z,1.53
2017-06-19T11:10:21.631Z,1.73
2017-06-19T11:12:49.595Z,1.67
2017-06-19T11:15:17.665Z,1.80
2017-06-19T11:17:45.837Z,1.50
2017-06-19T11:20:13.824Z,1.60
2017-06-19T11:22:42.901Z,1.37
2017-06-19T11:25:12.432Z,1.60
2017-06-19T11:27:41.295Z,1.47
2017-06-19T11:30:10.185Z,1.70
2017-06-19T11:32:37.949Z,1.57
2017-06-19T11:35:05.917Z,1.50
2017-06-19T11:37:33.849Z,2.00
2017-06-19T11:40:02.161Z,2.07
2017-06-19T11:42:30.052Z,1.60
2017-06-19T11:44:58.121Z,1.50
2017-06-19T11:47:26.070Z,1.73
2017-06-19T11:49:54.138Z,1.80
2017-06-19T11:52:22.004Z,1.33
2017-06-19T11:54:51.221Z,2.10
2017-06-19T11:57:19.145Z,2.07
2017-06-19T11:59:47.246Z,1.80
2017-06-19T12:02:16.131Z,1.47
2017-06-19T12:04:44.099Z,1.40
2017-06-19T12:07:13.193Z,1.40
2017-06-19T12:09:41.237Z,2.40
2017-06-19T12:12:09.033Z,1.70
2017-06-19T12:14:36.958Z,1.67
2017-06-19T12:17:04.760Z,1.67
2017-06-19T12:19:32.524Z,2.53
2017-06-19T12:22:00.641Z,1.50
2017-06-19T12:24:28.490Z,1.93
2017-06-19T12:26:57.574Z,1.87
2017-06-19T12:29:25.937Z,2.07
2017-06-19T12:31:53.902Z,1.77
2017-06-19T12:34:22.178Z,1.63
2017-06-19T12:36:49.942Z,1.70
2017-06-19T12:39:18.057Z,1.63
2017-06-19T12:41:47.008Z,2.00
2017-06-19T12:44:15.923Z,2.33
2017-06-19T12:46:44.580Z,2.13
2017-06-19T12:49:12.667Z,1.67
2017-06-19T12:51:41.831Z,1.63
2017-06-19T12:54:10.325Z,2.30
2017-06-19T12:56:38.124Z,1.50
2017-06-19T12:59:06.983Z,1.97
2017-06-19T13:01:35.054Z,2.30
2017-06-19T13:04:03.945Z,2.40
2017-06-19T13:06:32.119Z,2.40
2017-06-19T13:09:02.340Z,1.93
2017-06-19T13:11:30.131Z,2.13
2017-06-19T13:13:59.656Z,2.47
2017-06-19T13:16:28.032Z,2.20
2017-06-19T13:18:56.769Z,2.97
2017-06-19T13:21:24.933Z,2.00
2017-06-19T13:23:52.812Z,2.20
2017-06-19T13:26:20.783Z,2.27
2017-06-19T13:28:48.955Z,2.30
2017-06-19T13:31:18.166Z,2.60
2017-06-19T13:33:46.325Z,2.10
2017-06-19T13:36:14.702Z,2.40
2017-06-19T13:38:42.671Z,2.70
2017-06-19T13:41:11.465Z,2.30
2017-06-19T13:43:40.153Z,2.10
2017-06-19T13:46:08.111Z,1.83
2017-06-19T13:48:36.370Z,2.50
2017-06-19T13:51:04.788Z,1.80
2017-06-19T13:53:32.984Z,2.30
2017-06-19T13:56:01.727Z,2.30
2017-06-19T13:58:29.798Z,3.30
2017-06-19T14:00:57.453Z,2.40
2017-06-19T14:03:25.221Z,2.47
2017-06-19T14:05:53.191Z,2.97
2017-06-19T14:08:21.058Z,2.53
2017-06-19T14:10:49.640Z,2.60
2017-06-19T14:13:18.837Z,2.47
2017-06-19T14:15:46.395Z,2.17
2017-06-19T14:18:14.361Z,2.40
2017-06-19T14:20:43.299Z,2.60
2017-06-19T14:23:11.940Z,2.90
2017-06-19T14:25:40.215Z,3.70
2017-06-19T14:28:09.212Z,2.53
2017-06-19T14:30:37.073Z,2.47
2017-06-19T14:33:05.656Z,2.27
2017-06-19T14:35:34.240Z,2.23
2017-06-19T14:38:02.315Z,2.67
2017-06-19T14:40:30.138Z,2.53
2017-06-19T14:42:59.070Z,2.47
2017-06-19T14:45:27.036Z,2.70
2017-06-19T14:47:55.006Z,2.30
2017-06-19T14:50:23.382Z,1.93
2017-06-19T14:52:51.657Z,2.37
2017-06-19T14:55:20.489Z,2.40
2017-06-19T14:57:48.873Z,2.57
2017-06-19T15:00:17.407Z,2.57
2017-06-19T15:02:46.227Z,2.53
2017-06-19T15:05:14.290Z,3.00
2017-06-19T15:07:42.440Z,3.30
2017-06-19T15:10:11.023Z,3.23
2017-06-19T15:12:39.398Z,3.20
2017-06-19T15:15:07.470Z,2.87
2017-06-19T15:17:35.542Z,3.27
2017-06-19T15:20:03.509Z,3.00
2017-06-19T15:22:37.204Z,3.40
2017-06-19T15:25:05.422Z,2.67
2017-06-19T15:27:33.250Z,2.60
2017-06-19T15:30:02.036Z,3.20
2017-06-19T15:32:30.482Z,3.10
2017-06-19T15:34:58.385Z,2.50
2017-06-19T15:37:27.055Z,2.37
2017-06-19T15:39:55.663Z,2.33
2017-06-19T15:42:24.534Z,2.70
2017-06-19T15:44:52.997Z,3.10
2017-06-19T15:47:22.706Z,3.10
2017-06-19T15:49:50.456Z,2.53
2017-06-19T15:52:18.670Z,2.93
2017-06-19T15:54:46.357Z,2.97
2017-06-19T15:57:14.094Z,3.23
2017-06-19T15:59:42.575Z,2.57
2017-06-19T16:02:11.105Z,3.60
2017-06-19T16:04:39.077Z,2.73
2017-06-19T16:07:06.992Z,2.80
2017-06-19T16:09:35.248Z,3.03
2017-06-19T16:12:03.074Z,2.70
2017-06-19T16:14:31.614Z,3.17
2017-06-19T16:16:59.927Z,3.20
2017-06-19T16:19:28.580Z,3.13
2017-06-19T16:21:56.242Z,2.70
2017-06-19T16:24:24.408Z,3.43
2017-06-19T16:26:52.275Z,3.17
2017-06-19T16:29:20.552Z,3.07
2017-06-19T16:31:48.419Z,2.97
2017-06-19T16:34:16.180Z,3.40
2017-06-19T16:36:44.865Z,2.77
2017-06-19T16:39:12.731Z,3.17
2017-06-19T16:41:40.803Z,3.13
2017-06-19T16:44:08.771Z,3.37
2017-06-19T16:46:36.740Z,3.10
2017-06-19T16:49:05.117Z,4.40
2017-06-19T16:51:33.234Z,3.43
2017-06-19T16:54:02.069Z,3.30
2017-06-19T16:56:31.278Z,3.03
2017-06-19T16:58:59.244Z,3.10
2017-06-19T17:01:27.130Z,3.10
2017-06-19T17:03:55.014Z,3.13
2017-06-19T17:06:23.733Z,3.00
2017-06-19T17:08:51.526Z,3.80
2017-06-19T17:11:19.597Z,2.60
2017-06-19T17:13:47.458Z,3.30
2017-06-19T17:16:15.432Z,3.80
2017-06-19T17:18:43.299Z,2.83
2017-06-19T17:21:11.676Z,3.93
2017-06-19T17:23:39.590Z,4.30
2017-06-19T17:26:07.411Z,3.10
2017-06-19T17:28:35.612Z,3.50
2017-06-19T17:31:03.755Z,4.87
2017-06-19T17:33:31.725Z,3.00
2017-06-19T17:36:00.000Z,3.23
2017-06-19T17:38:28.379Z,3.50
2017-06-19T17:40:56.076Z,2.87
2017-06-19T17:43:23.635Z,2.30
2017-06-19T17:45:52.725Z,3.27
2017-06-19T17:48:20.865Z,3.17
2017-06-19T17:50:49.635Z,3.30
2017-06-19T17:53:18.134Z,2.67
2017-06-19T17:55:46.101Z,3.00
2017-06-19T17:58:13.968Z,2.90
2017-06-19T18:00:42.553Z,3.23
2017-06-19T18:03:10.225Z,3.50
2017-06-19T18:05:38.181Z,2.90
2017-06-19T18:08:06.456Z,3.60
2017-06-19T18:10:34.630Z,3.10
2017-06-19T18:13:02.904Z,3.40
2017-06-19T18:15:31.695Z,4.10
2017-06-19T18:18:00.172Z,3.50
2017-06-19T18:20:28.010Z,3.80
2017-06-19T18:22:55.906Z,3.50
2017-06-19T18:25:24.180Z,4.60
2017-06-19T18:27:52.882Z,3.57
2017-06-19T18:30:21.127Z,2.90
2017-06-19T18:32:49.109Z,3.57
2017-06-19T18:35:17.796Z,3.20
2017-06-19T18:37:45.438Z,3.10
2017-06-19T18:40:14.654Z,3.27
2017-06-19T18:42:43.339Z,2.90
2017-06-19T18:45:11.309Z,3.83
2017-06-19T18:47:39.109Z,3.10
2017-06-19T18:50:07.960Z,3.20
2017-06-19T18:52:35.826Z,2.83
2017-06-19T18:55:03.692Z,3.13
2017-06-19T18:57:31.524Z,2.90
2017-06-19T18:59:59.221Z,3.17
2017-06-19T19:02:27.307Z,4.47
2017-06-19T19:04:55.669Z,3.63
2017-06-19T19:07:23.687Z,3.33
2017-06-19T19:09:52.334Z,3.37
2017-06-19T19:12:20.229Z,3.50
2017-06-19T19:14:49.798Z,3.17
2017-06-19T19:17:17.662Z,3.87
2017-06-19T19:19:45.478Z,3.83
2017-06-19T19:22:14.315Z,3.70
2017-06-19T19:24:42.385Z,4.43
2017-06-19T19:27:10.732Z,4.33
2017-06-19T19:29:38.740Z,4.00
2017-06-19T19:32:06.598Z,4.53
2017-06-19T19:34:34.976Z,4.60
2017-06-19T19:37:03.252Z,4.13
2017-06-19T19:39:30.902Z,5.43
2017-06-19T19:41:58.677Z,4.07
2017-06-19T19:44:27.736Z,4.00
2017-06-19T19:46:55.944Z,4.40
2017-06-19T19:49:23.811Z,4.30
2017-06-19T19:51:51.778Z,5.03
2017-06-19T19:54:19.861Z,4.10
2017-06-19T19:56:49.129Z,4.70
2017-06-19T19:59:16.910Z,4.83
2017-06-19T20:01:44.984Z,4.50
2017-06-19T20:04:14.078Z,4.33
2017-06-19T20:06:41.962Z,6.07
2017-06-19T20:09:10.120Z,5.57
2017-06-19T20:11:37.948Z,6.10
2017-06-19T20:14:05.952Z,5.73
2017-06-19T20:16:33.622Z,6.17
2017-06-19T20:19:01.310Z,5.17
2017-06-19T20:21:29.245Z,5.27
2017-06-19T20:23:57.283Z,5.27
2017-06-19T20:26:25.632Z,4.90
2017-06-19T20:28:54.790Z,4.80
2017-06-19T20:31:22.600Z,3.83
2017-06-19T20:33:51.227Z,4.50
2017-06-19T20:36:19.102Z,4.87
2017-06-19T20:38:46.790Z,4.43
2017-06-19T20:41:14.440Z,4.27
2017-06-19T20:43:43.009Z,4.10
2017-06-19T20:46:10.876Z,4.17
2017-06-19T20:48:39.252Z,5.50
2017-06-19T20:51:07.322Z,4.67
2017-06-19T20:53:35.290Z,4.50
2017-06-19T20:56:03.624Z,5.67
2017-06-19T20:58:31.491Z,5.43
2017-06-19T21:00:59.503Z,5.20
2017-06-19T21:03:27.881Z,4.17
2017-06-19T21:05:55.648Z,5.13
2017-06-19T21:08:24.330Z,5.87
2017-06-19T21:10:52.096Z,6.00
2017-06-19T21:13:20.267Z,5.40
2017-06-19T21:15:48.132Z,5.20
2017-06-19T21:18:16.408Z,5.30
2017-06-19T21:20:44.689Z,4.73
2017-06-19T21:23:12.755Z,4.73
2017-06-19T21:25:40.724Z,5.20
2017-06-19T21:28:08.899Z,5.97
2017-06-19T21:30:37.642Z,6.30
2017-06-19T21:33:05.346Z,7.30
2017-06-19T21:35:33.030Z,6.10
2017-06-19T21:38:00.882Z,5.80
2017-06-19T21:40:28.982Z,5.90
2017-06-19T21:42:57.479Z,5.77
2017-06-19T21:45:26.007Z,5.83
2017-06-19T21:47:53.773Z,5.57
2017-06-19T21:50:21.755Z,6.60
2017-06-19T21:52:50.376Z,5.97
2017-06-19T21:55:18.786Z,5.90
2017-06-19T21:57:46.668Z,6.80
2017-06-19T22:00:14.316Z,6.13
2017-06-19T22:02:41.917Z,7.30
2017-06-19T22:05:09.665Z,7.00
2017-06-19T22:07:37.203Z,7.87
2017-06-19T22:10:05.305Z,7.00
2017-06-19T22:12:32.898Z,6.90
2017-06-19T22:15:01.229Z,6.30
2017-06-19T22:17:28.712Z,6.70
2017-06-19T22:19:56.545Z,7.20
2017-06-19T22:22:39.460Z,6.80
2017-06-19T22:25:07.475Z,6.53
2017-06-19T22:27:35.747Z,6.30
2017-06-19T22:30:03.675Z,6.73
2017-06-19T22:32:31.539Z,6.23
2017-06-19T22:34:59.269Z,5.60
2017-06-19T22:37:27.476Z,5.63
2017-06-19T22:39:55.874Z,6.00
2017-06-19T22:42:24.614Z,6.03
2017-06-19T22:44:53.021Z,5.87
2017-06-19T22:47:22.015Z,6.47
2017-06-19T22:49:50.904Z,6.33
2017-06-19T22:52:18.769Z,7.50
2017-06-19T22:54:46.840Z,7.47
2017-06-19T22:57:14.910Z,7.27
2017-06-19T22:59:42.777Z,6.40
2017-06-19T23:02:11.051Z,7.20
2017-06-19T23:04:38.815Z,6.70
2017-06-19T23:07:06.855Z,7.00
2017-06-19T23:09:34.763Z,6.90
2017-06-19T23:12:02.673Z,7.73
2017-06-19T23:14:31.216Z,7.40
2017-06-19T23:16:59.302Z,7.50
2017-06-19T23:19:27.240Z,7.97
2017-06-19T23:21:55.414Z,7.97
2017-06-19T23:24:24.016Z,7.67
2017-06-19T23:26:52.478Z,6.60
2017-06-19T23:29:20.241Z,6.70
2017-06-19T23:31:48.210Z,7.63
2017-06-19T23:34:16.478Z,7.00
2017-06-19T23:36:44.586Z,7.00
2017-06-19T23:39:12.357Z,6.87
2017-06-19T23:41:40.084Z,7.80
2017-06-19T23:44:08.141Z,6.47
2017-06-19T23:46:35.975Z,8.10
2017-06-19T23:49:03.888Z,8.00
2017-06-19T23:51:31.758Z,8.00
2017-06-19T23:53:59.516Z,9.00
2017-06-19T23:56:27.146Z,7.90
2017-06-19T23:58:54.839Z,7.23
